sensor_id;sensor_type;location;lat;lon;timestamp;temperature;humidity
34640;DHT22;22600;48.186;11.526;2022-08-14T00:01:06;23.10;61.10
34640;DHT22;22600;48.186;11.526;2022-08-14T00:03:33;23.10;61.10
34640;DHT22;22600;48.186;11.526;2022-08-14T00:06:00;23.10;61.10
34640;DHT22;22600;48.186;11.526;2022-08-14T00:08:26;23.20;61.10
34640;DHT22;22600;48.186;11.526;2022-08-14T00:10:52;23.10;61.10
34640;DHT22;22600;48.186;11.526;2022-08-14T00:13:19;23.10;61.10
34640;DHT22;22600;48.186;11.526;2022-08-14T00:15:47;23.10;61.10
34640;DHT22;22600;48.186;11.526;2022-08-14T00:18:19;23.10;61.10
34640;DHT22;22600;48.186;11.526;2022-08-14T00:20:45;23.10;61.10
34640;DHT22;22600;48.186;11.526;2022-08-14T00:23:12;23.10;61.10
34640;DHT22;22600;48.186;11.526;2022-08-14T00:25:39;23.10;61.10
34640;DHT22;22600;48.186;11.526;2022-08-14T00:28:08;23.10;61.10
34640;DHT22;22600;48.186;11.526;2022-08-14T00:30:34;23.10;61.10
34640;DHT22;22600;48.186;11.526;2022-08-14T00:33:00;23.10;61.10
34640;DHT22;22600;48.186;11.526;2022-08-14T00:35:25;23.10;61.10
34640;DHT22;22600;48.186;11.526;2022-08-14T00:37:51;23.00;61.00
34640;DHT22;22600;48.186;11.526;2022-08-14T00:40:18;23.10;61.10
34640;DHT22;22600;48.186;11.526;2022-08-14T00:42:44;23.10;61.10
34640;DHT22;22600;48.186;11.526;2022-08-14T00:45:11;23.10;61.10
34640;DHT22;22600;48.186;11.526;2022-08-14T00:47:38;23.10;61.10
34640;DHT22;22600;48.186;11.526;2022-08-14T00:50:06;23.10;61.10
34640;DHT22;22600;48.186;11.526;2022-08-14T00:52:32;23.10;61.10
34640;DHT22;22600;48.186;11.526;2022-08-14T00:54:58;23.20;61.20
34640;DHT22;22600;48.186;11.526;2022-08-14T00:57:29;23.10;61.10
34640;DHT22;22600;48.186;11.526;2022-08-14T00:59:55;23.20;61.20
34640;DHT22;22600;48.186;11.526;2022-08-14T01:02:22;23.10;61.10
34640;DHT22;22600;48.186;11.526;2022-08-14T01:04:56;23.10;61.10
34640;DHT22;22600;48.186;11.526;2022-08-14T01:07:23;23.10;61.10
34640;DHT22;22600;48.186;11.526;2022-08-14T01:09:54;23.10;61.10
34640;DHT22;22600;48.186;11.526;2022-08-14T01:12:22;23.10;61.10
34640;DHT22;22600;48.186;11.526;2022-08-14T01:14:48;23.10;61.10
34640;DHT22;22600;48.186;11.526;2022-08-14T01:17:17;23.10;61.10
34640;DHT22;22600;48.186;11.526;2022-08-14T01:19:43;23.10;61.10
34640;DHT22;22600;48.186;11.526;2022-08-14T01:22:27;23.10;60.50
34640;DHT22;22600;48.186;11.526;2022-08-14T01:24:53;23.10;61.10
34640;DHT22;22600;48.186;11.526;2022-08-14T01:27:21;23.10;61.10
34640;DHT22;22600;48.186;11.526;2022-08-14T01:29:50;23.10;61.10
34640;DHT22;22600;48.186;11.526;2022-08-14T01:32:17;23.10;61.10
34640;DHT22;22600;48.186;11.526;2022-08-14T01:34:54;23.10;61.10
34640;DHT22;22600;48.186;11.526;2022-08-14T01:37:21;23.10;61.10
34640;DHT22;22600;48.186;11.526;2022-08-14T01:39:50;23.10;61.10
34640;DHT22;22600;48.186;11.526;2022-08-14T01:42:17;23.10;61.10
34640;DHT22;22600;48.186;11.526;2022-08-14T01:44:43;23.10;61.20
34640;DHT22;22600;48.186;11.526;2022-08-14T01:47:09;23.00;61.10
34640;DHT22;22600;48.186;11.526;2022-08-14T01:49:39;23.00;61.10
34640;DHT22;22600;48.186;11.526;2022-08-14T01:52:05;23.10;61.10
34640;DHT22;22600;48.186;11.526;2022-08-14T01:54:31;23.10;61.10
34640;DHT22;22600;48.186;11.526;2022-08-14T01:56:57;23.10;61.20
34640;DHT22;22600;48.186;11.526;2022-08-14T01:59:31;24.80;62.20
34640;DHT22;22600;48.186;11.526;2022-08-14T02:02:03;23.10;61.10
34640;DHT22;22600;48.186;11.526;2022-08-14T02:04:34;23.10;61.10
34640;DHT22;22600;48.186;11.526;2022-08-14T02:07:00;23.00;61.10
34640;DHT22;22600;48.186;11.526;2022-08-14T02:09:28;23.10;61.10
34640;DHT22;22600;48.186;11.526;2022-08-14T02:11:57;23.10;61.10
34640;DHT22;22600;48.186;11.526;2022-08-14T02:14:23;23.10;61.20
34640;DHT22;22600;48.186;11.526;2022-08-14T02:16:49;23.10;61.90
34640;DHT22;22600;48.186;11.526;2022-08-14T02:19:20;23.10;61.10
34640;DHT22;22600;48.186;11.526;2022-08-14T02:21:48;23.00;61.10
34640;DHT22;22600;48.186;11.526;2022-08-14T02:24:15;23.10;61.20
34640;DHT22;22600;48.186;11.526;2022-08-14T02:26:42;23.10;61.20
34640;DHT22;22600;48.186;11.526;2022-08-14T02:29:14;23.10;61.10
34640;DHT22;22600;48.186;11.526;2022-08-14T02:31:44;23.00;61.10
34640;DHT22;22600;48.186;11.526;2022-08-14T02:34:23;23.10;61.10
34640;DHT22;22600;48.186;11.526;2022-08-14T02:36:55;23.10;61.10
34640;DHT22;22600;48.186;11.526;2022-08-14T02:39:22;23.10;61.20
34640;DHT22;22600;48.186;11.526;2022-08-14T02:41:48;23.10;61.20
34640;DHT22;22600;48.186;11.526;2022-08-14T02:44:16;23.00;61.10
34640;DHT22;22600;48.186;11.526;2022-08-14T02:46:43;23.20;61.20
34640;DHT22;22600;48.186;11.526;2022-08-14T02:49:09;23.10;61.20
34640;DHT22;22600;48.186;11.526;2022-08-14T02:51:36;23.10;61.20
34640;DHT22;22600;48.186;11.526;2022-08-14T02:54:04;23.10;61.20
34640;DHT22;22600;48.186;11.526;2022-08-14T02:56:31;23.10;61.20
34640;DHT22;22600;48.186;11.526;2022-08-14T02:58:57;23.10;61.20
34640;DHT22;22600;48.186;11.526;2022-08-14T03:01:25;21.70;60.30
34640;DHT22;22600;48.186;11.526;2022-08-14T03:03:52;23.00;61.10
34640;DHT22;22600;48.186;11.526;2022-08-14T03:06:18;23.00;61.10
34640;DHT22;22600;48.186;11.526;2022-08-14T03:08:52;23.00;61.10
34640;DHT22;22600;48.186;11.526;2022-08-14T03:11:18;23.10;61.20
34640;DHT22;22600;48.186;11.526;2022-08-14T03:13:48;23.00;61.20
34640;DHT22;22600;48.186;11.526;2022-08-14T03:16:19;23.00;61.20
34640;DHT22;22600;48.186;11.526;2022-08-14T03:18:46;22.60;60.90
34640;DHT22;22600;48.186;11.526;2022-08-14T03:21:15;23.00;61.20
34640;DHT22;22600;48.186;11.526;2022-08-14T03:23:43;23.00;61.10
34640;DHT22;22600;48.186;11.526;2022-08-14T03:26:11;23.00;61.20
34640;DHT22;22600;48.186;11.526;2022-08-14T03:28:38;23.00;61.10
34640;DHT22;22600;48.186;11.526;2022-08-14T03:31:07;23.00;61.10
34640;DHT22;22600;48.186;11.526;2022-08-14T03:33:33;23.00;61.20
34640;DHT22;22600;48.186;11.526;2022-08-14T03:36:05;23.00;61.10
34640;DHT22;22600;48.186;11.526;2022-08-14T03:38:34;23.00;61.10
34640;DHT22;22600;48.186;11.526;2022-08-14T03:41:07;23.00;61.10
34640;DHT22;22600;48.186;11.526;2022-08-14T03:43:39;23.00;61.10
34640;DHT22;22600;48.186;11.526;2022-08-14T03:46:05;23.00;61.20
34640;DHT22;22600;48.186;11.526;2022-08-14T03:48:30;23.00;61.10
34640;DHT22;22600;48.186;11.526;2022-08-14T03:50:56;23.00;61.10
34640;DHT22;22600;48.186;11.526;2022-08-14T03:53:22;23.00;61.10
34640;DHT22;22600;48.186;11.526;2022-08-14T03:55:47;23.00;61.10
34640;DHT22;22600;48.186;11.526;2022-08-14T03:58:13;23.00;61.20
34640;DHT22;22600;48.186;11.526;2022-08-14T04:00:40;23.10;61.20
34640;DHT22;22600;48.186;11.526;2022-08-14T04:03:07;23.00;61.20
34640;DHT22;22600;48.186;11.526;2022-08-14T04:05:34;23.00;61.20
34640;DHT22;22600;48.186;11.526;2022-08-14T04:08:02;23.00;61.20
34640;DHT22;22600;48.186;11.526;2022-08-14T04:10:28;23.00;61.20
34640;DHT22;22600;48.186;11.526;2022-08-14T04:12:53;23.00;61.20
34640;DHT22;22600;48.186;11.526;2022-08-14T04:15:24;23.00;61.20
34640;DHT22;22600;48.186;11.526;2022-08-14T04:17:51;23.00;61.40
34640;DHT22;22600;48.186;11.526;2022-08-14T04:20:18;23.00;61.20
34640;DHT22;22600;48.186;11.526;2022-08-14T04:22:44;23.00;61.20
34640;DHT22;22600;48.186;11.526;2022-08-14T04:25:10;23.00;61.30
34640;DHT22;22600;48.186;11.526;2022-08-14T04:27:36;23.00;61.30
34640;DHT22;22600;48.186;11.526;2022-08-14T04:30:04;23.00;61.20
34640;DHT22;22600;48.186;11.526;2022-08-14T04:32:30;23.00;61.20
34640;DHT22;22600;48.186;11.526;2022-08-14T04:34:58;23.00;61.20
34640;DHT22;22600;48.186;11.526;2022-08-14T04:37:24;23.00;61.20
34640;DHT22;22600;48.186;11.526;2022-08-14T04:40:09;23.00;61.20
34640;DHT22;22600;48.186;11.526;2022-08-14T04:42:54;23.00;61.20
34640;DHT22;22600;48.186;11.526;2022-08-14T04:45:39;23.00;61.20
34640;DHT22;22600;48.186;11.526;2022-08-14T04:48:12;23.00;61.10
34640;DHT22;22600;48.186;11.526;2022-08-14T04:50:44;23.00;61.20
34640;DHT22;22600;48.186;11.526;2022-08-14T04:53:13;23.00;61.20
34640;DHT22;22600;48.186;11.526;2022-08-14T04:55:41;23.00;61.20
34640;DHT22;22600;48.186;11.526;2022-08-14T04:58:07;23.00;61.20
34640;DHT22;22600;48.186;11.526;2022-08-14T05:00:34;23.10;61.20
34640;DHT22;22600;48.186;11.526;2022-08-14T05:03:00;23.10;61.20
34640;DHT22;22600;48.186;11.526;2022-08-14T05:05:29;23.10;61.20
34640;DHT22;22600;48.186;11.526;2022-08-14T05:07:54;23.10;61.20
34640;DHT22;22600;48.186;11.526;2022-08-14T05:10:20;23.10;61.10
34640;DHT22;22600;48.186;11.526;2022-08-14T05:12:48;23.10;61.20
34640;DHT22;22600;48.186;11.526;2022-08-14T05:15:14;23.10;61.10
34640;DHT22;22600;48.186;11.526;2022-08-14T05:17:42;23.20;61.10
34640;DHT22;22600;48.186;11.526;2022-08-14T05:20:08;23.10;61.00
34640;DHT22;22600;48.186;11.526;2022-08-14T05:22:35;23.20;61.10
34640;DHT22;22600;48.186;11.526;2022-08-14T05:25:02;23.20;61.00
34640;DHT22;22600;48.186;11.526;2022-08-14T05:27:28;23.20;60.90
34640;DHT22;22600;48.186;11.526;2022-08-14T05:29:54;23.20;60.90
34640;DHT22;22600;48.186;11.526;2022-08-14T05:32:21;23.20;60.80
34640;DHT22;22600;48.186;11.526;2022-08-14T05:34:47;23.30;60.80
34640;DHT22;22600;48.186;11.526;2022-08-14T05:37:12;23.30;60.80
34640;DHT22;22600;48.186;11.526;2022-08-14T05:39:39;23.30;60.80
34640;DHT22;22600;48.186;11.526;2022-08-14T05:42:08;23.30;60.70
34640;DHT22;22600;48.186;11.526;2022-08-14T05:44:33;23.40;60.70
34640;DHT22;22600;48.186;11.526;2022-08-14T05:46:59;23.40;60.70
34640;DHT22;22600;48.186;11.526;2022-08-14T05:49:25;23.40;60.60
34640;DHT22;22600;48.186;11.526;2022-08-14T05:51:50;23.40;60.60
34640;DHT22;22600;48.186;11.526;2022-08-14T05:54:16;23.40;60.50
34640;DHT22;22600;48.186;11.526;2022-08-14T05:56:41;23.40;60.50
34640;DHT22;22600;48.186;11.526;2022-08-14T05:59:07;23.40;60.40
34640;DHT22;22600;48.186;11.526;2022-08-14T06:01:33;23.40;60.40
34640;DHT22;22600;48.186;11.526;2022-08-14T06:03:59;23.50;60.40
34640;DHT22;22600;48.186;11.526;2022-08-14T06:06:24;23.50;60.30
34640;DHT22;22600;48.186;11.526;2022-08-14T06:08:50;23.50;60.30
34640;DHT22;22600;48.186;11.526;2022-08-14T06:11:15;23.50;60.30
34640;DHT22;22600;48.186;11.526;2022-08-14T06:13:42;23.50;60.30
34640;DHT22;22600;48.186;11.526;2022-08-14T06:16:08;23.50;60.20
34640;DHT22;22600;48.186;11.526;2022-08-14T06:18:34;23.60;60.20
34640;DHT22;22600;48.186;11.526;2022-08-14T06:21:02;23.60;60.20
34640;DHT22;22600;48.186;11.526;2022-08-14T06:23:27;23.60;60.20
34640;DHT22;22600;48.186;11.526;2022-08-14T06:25:53;23.60;60.10
34640;DHT22;22600;48.186;11.526;2022-08-14T06:28:24;23.60;60.10
34640;DHT22;22600;48.186;11.526;2022-08-14T06:30:54;23.60;60.00
34640;DHT22;22600;48.186;11.526;2022-08-14T06:33:20;23.70;60.00
34640;DHT22;22600;48.186;11.526;2022-08-14T06:35:47;23.70;60.00
34640;DHT22;22600;48.186;11.526;2022-08-14T06:38:23;23.60;60.00
34640;DHT22;22600;48.186;11.526;2022-08-14T06:40:49;23.70;60.00
34640;DHT22;22600;48.186;11.526;2022-08-14T06:43:16;23.70;60.00
34640;DHT22;22600;48.186;11.526;2022-08-14T06:45:45;23.90;60.00
34640;DHT22;22600;48.186;11.526;2022-08-14T06:48:22;23.70;59.90
34640;DHT22;22600;48.186;11.526;2022-08-14T06:50:49;23.70;59.90
34640;DHT22;22600;48.186;11.526;2022-08-14T06:53:15;23.70;59.90
34640;DHT22;22600;48.186;11.526;2022-08-14T06:55:41;23.70;59.90
34640;DHT22;22600;48.186;11.526;2022-08-14T06:58:11;23.70;59.80
34640;DHT22;22600;48.186;11.526;2022-08-14T07:00:37;23.80;59.90
34640;DHT22;22600;48.186;11.526;2022-08-14T07:03:03;23.80;59.90
34640;DHT22;22600;48.186;11.526;2022-08-14T07:05:48;23.80;59.80
34640;DHT22;22600;48.186;11.526;2022-08-14T07:08:23;23.80;59.80
34640;DHT22;22600;48.186;11.526;2022-08-14T07:10:55;23.80;59.80
34640;DHT22;22600;48.186;11.526;2022-08-14T07:13:21;23.80;59.80
34640;DHT22;22600;48.186;11.526;2022-08-14T07:15:51;23.80;59.80
34640;DHT22;22600;48.186;11.526;2022-08-14T07:18:24;23.80;59.80
34640;DHT22;22600;48.186;11.526;2022-08-14T07:20:51;23.80;59.70
34640;DHT22;22600;48.186;11.526;2022-08-14T07:23:18;23.80;59.70
34640;DHT22;22600;48.186;11.526;2022-08-14T07:25:44;23.80;59.70
34640;DHT22;22600;48.186;11.526;2022-08-14T07:28:11;23.90;59.80
34640;DHT22;22600;48.186;11.526;2022-08-14T07:30:37;23.80;59.70
34640;DHT22;22600;48.186;11.526;2022-08-14T07:33:04;23.80;59.70
34640;DHT22;22600;48.186;11.526;2022-08-14T07:35:30;23.80;59.70
34640;DHT22;22600;48.186;11.526;2022-08-14T07:37:56;23.80;59.70
34640;DHT22;22600;48.186;11.526;2022-08-14T07:40:21;23.80;59.70
34640;DHT22;22600;48.186;11.526;2022-08-14T07:42:47;23.80;59.70
34640;DHT22;22600;48.186;11.526;2022-08-14T07:45:13;23.80;59.70
34640;DHT22;22600;48.186;11.526;2022-08-14T07:47:42;23.90;59.80
34640;DHT22;22600;48.186;11.526;2022-08-14T07:50:15;21.20;58.40
34640;DHT22;22600;48.186;11.526;2022-08-14T07:52:42;23.80;59.70
34640;DHT22;22600;48.186;11.526;2022-08-14T07:55:09;23.80;59.70
34640;DHT22;22600;48.186;11.526;2022-08-14T07:57:38;23.80;59.70
34640;DHT22;22600;48.186;11.526;2022-08-14T08:00:07;23.90;59.80
34640;DHT22;22600;48.186;11.526;2022-08-14T08:02:38;23.80;59.70
34640;DHT22;22600;48.186;11.526;2022-08-14T08:05:05;23.80;59.70
34640;DHT22;22600;48.186;11.526;2022-08-14T08:07:31;23.80;59.70
34640;DHT22;22600;48.186;11.526;2022-08-14T08:09:58;23.90;59.70
34640;DHT22;22600;48.186;11.526;2022-08-14T08:12:24;23.80;59.70
34640;DHT22;22600;48.186;11.526;2022-08-14T08:14:51;23.80;59.70
34640;DHT22;22600;48.186;11.526;2022-08-14T08:17:17;23.80;59.70
34640;DHT22;22600;48.186;11.526;2022-08-14T08:19:45;23.80;59.70
34640;DHT22;22600;48.186;11.526;2022-08-14T08:22:12;23.80;59.80
34640;DHT22;22600;48.186;11.526;2022-08-14T08:24:38;23.80;59.70
34640;DHT22;22600;48.186;11.526;2022-08-14T08:27:14;23.80;59.80
34640;DHT22;22600;48.186;11.526;2022-08-14T08:29:39;23.80;59.80
34640;DHT22;22600;48.186;11.526;2022-08-14T08:32:05;23.80;59.80
34640;DHT22;22600;48.186;11.526;2022-08-14T08:34:41;23.80;59.80
34640;DHT22;22600;48.186;11.526;2022-08-14T08:37:06;23.80;59.80
34640;DHT22;22600;48.186;11.526;2022-08-14T08:39:42;23.80;59.90
34640;DHT22;22600;48.186;11.526;2022-08-14T08:42:08;23.80;59.90
34640;DHT22;22600;48.186;11.526;2022-08-14T08:44:33;23.70;59.80
34640;DHT22;22600;48.186;11.526;2022-08-14T08:47:01;23.80;59.90
34640;DHT22;22600;48.186;11.526;2022-08-14T08:49:36;23.80;59.90
34640;DHT22;22600;48.186;11.526;2022-08-14T08:52:06;23.80;60.00
34640;DHT22;22600;48.186;11.526;2022-08-14T08:54:33;23.80;60.00
34640;DHT22;22600;48.186;11.526;2022-08-14T08:56:58;23.70;59.90
34640;DHT22;22600;48.186;11.526;2022-08-14T08:59:25;23.70;60.00
34640;DHT22;22600;48.186;11.526;2022-08-14T09:01:52;23.70;60.00
34640;DHT22;22600;48.186;11.526;2022-08-14T09:04:19;23.80;60.10
34640;DHT22;22600;48.186;11.526;2022-08-14T09:06:46;23.70;60.00
34640;DHT22;22600;48.186;11.526;2022-08-14T09:09:25;23.70;60.00
34640;DHT22;22600;48.186;11.526;2022-08-14T09:11:52;23.70;60.10
34640;DHT22;22600;48.186;11.526;2022-08-14T09:14:23;23.70;60.10
34640;DHT22;22600;48.186;11.526;2022-08-14T09:16:50;23.70;60.10
34640;DHT22;22600;48.186;11.526;2022-08-14T09:19:16;23.70;60.20
34640;DHT22;22600;48.186;11.526;2022-08-14T09:21:42;23.70;60.40
34640;DHT22;22600;48.186;11.526;2022-08-14T09:24:09;23.60;60.20
34640;DHT22;22600;48.186;11.526;2022-08-14T09:26:36;23.70;60.30
34640;DHT22;22600;48.186;11.526;2022-08-14T09:29:03;23.60;60.30
34640;DHT22;22600;48.186;11.526;2022-08-14T09:31:29;23.60;60.30
34640;DHT22;22600;48.186;11.526;2022-08-14T09:40:03;23.60;60.40
34640;DHT22;22600;48.186;11.526;2022-08-14T09:42:49;25.40;61.60
34640;DHT22;22600;48.186;11.526;2022-08-14T09:45:22;23.50;60.40
34640;DHT22;22600;48.186;11.526;2022-08-14T09:47:51;23.50;60.40
34640;DHT22;22600;48.186;11.526;2022-08-14T09:53:03;23.50;60.50
34640;DHT22;22600;48.186;11.526;2022-08-14T09:55:33;23.50;60.50
34640;DHT22;22600;48.186;11.526;2022-08-14T09:58:14;23.50;60.60
34640;DHT22;22600;48.186;11.526;2022-08-14T10:00:45;23.50;60.60
34640;DHT22;22600;48.186;11.526;2022-08-14T10:03:22;23.60;60.70
34640;DHT22;22600;48.186;11.526;2022-08-14T10:05:48;23.50;60.60
34640;DHT22;22600;48.186;11.526;2022-08-14T10:08:19;23.50;60.70
34640;DHT22;22600;48.186;11.526;2022-08-14T10:10:45;23.50;60.70
34640;DHT22;22600;48.186;11.526;2022-08-14T10:13:24;23.50;60.70
34640;DHT22;22600;48.186;11.526;2022-08-14T10:15:50;23.40;60.70
34640;DHT22;22600;48.186;11.526;2022-08-14T10:18:17;23.50;60.80
34640;DHT22;22600;48.186;11.526;2022-08-14T10:20:54;23.50;60.80
34640;DHT22;22600;48.186;11.526;2022-08-14T10:23:25;23.40;60.80
34640;DHT22;22600;48.186;11.526;2022-08-14T10:25:56;23.40;60.80
34640;DHT22;22600;48.186;11.526;2022-08-14T10:28:23;23.40;60.80
34640;DHT22;22600;48.186;11.526;2022-08-14T10:30:49;23.40;60.80
34640;DHT22;22600;48.186;11.526;2022-08-14T10:33:30;23.40;60.90
34640;DHT22;22600;48.186;11.526;2022-08-14T10:35:57;23.40;60.90
34640;DHT22;22600;48.186;11.526;2022-08-14T10:38:26;23.40;60.90
34640;DHT22;22600;48.186;11.526;2022-08-14T10:40:52;23.40;60.90
34640;DHT22;22600;48.186;11.526;2022-08-14T10:43:21;23.40;60.90
34640;DHT22;22600;48.186;11.526;2022-08-14T10:45:59;23.40;60.90
34640;DHT22;22600;48.186;11.526;2022-08-14T10:48:26;23.40;60.90
34640;DHT22;22600;48.186;11.526;2022-08-14T10:50:52;23.40;61.00
34640;DHT22;22600;48.186;11.526;2022-08-14T10:53:32;23.40;61.00
34640;DHT22;22600;48.186;11.526;2022-08-14T10:56:00;23.40;60.90
34640;DHT22;22600;48.186;11.526;2022-08-14T10:58:29;23.30;61.00
34640;DHT22;22600;48.186;11.526;2022-08-14T11:00:57;23.30;61.00
34640;DHT22;22600;48.186;11.526;2022-08-14T11:03:23;23.30;61.00
34640;DHT22;22600;48.186;11.526;2022-08-14T11:05:51;23.30;60.90
34640;DHT22;22600;48.186;11.526;2022-08-14T11:08:29;23.40;61.10
34640;DHT22;22600;48.186;11.526;2022-08-14T11:10:57;23.40;61.10
34640;DHT22;22600;48.186;11.526;2022-08-14T11:13:27;23.30;61.00
34640;DHT22;22600;48.186;11.526;2022-08-14T11:15:58;23.40;61.10
34640;DHT22;22600;48.186;11.526;2022-08-14T11:18:29;23.30;61.00
34640;DHT22;22600;48.186;11.526;2022-08-14T11:20:56;23.30;61.10
34640;DHT22;22600;48.186;11.526;2022-08-14T11:23:28;23.30;61.10
34640;DHT22;22600;48.186;11.526;2022-08-14T11:25:56;23.30;61.10
34640;DHT22;22600;48.186;11.526;2022-08-14T11:28:25;23.30;61.10
34640;DHT22;22600;48.186;11.526;2022-08-14T11:30:51;23.30;61.20
34640;DHT22;22600;48.186;11.526;2022-08-14T11:33:25;23.30;61.10
34640;DHT22;22600;48.186;11.526;2022-08-14T11:35:57;23.30;61.20
34640;DHT22;22600;48.186;11.526;2022-08-14T11:38:26;23.30;61.20
34640;DHT22;22600;48.186;11.526;2022-08-14T11:40:55;23.30;61.20
34640;DHT22;22600;48.186;11.526;2022-08-14T11:43:20;23.30;61.30
34640;DHT22;22600;48.186;11.526;2022-08-14T11:45:46;23.30;61.20
34640;DHT22;22600;48.186;11.526;2022-08-14T11:48:24;23.30;61.30
34640;DHT22;22600;48.186;11.526;2022-08-14T11:50:51;23.30;61.30
34640;DHT22;22600;48.186;11.526;2022-08-14T11:53:21;25.60;63.20
34640;DHT22;22600;48.186;11.526;2022-08-14T11:55:54;23.20;61.30
34640;DHT22;22600;48.186;11.526;2022-08-14T11:58:24;23.30;61.30
34640;DHT22;22600;48.186;11.526;2022-08-14T12:00:53;23.30;61.30
34640;DHT22;22600;48.186;11.526;2022-08-14T12:03:19;23.30;61.30
34640;DHT22;22600;48.186;11.526;2022-08-14T12:05:45;23.30;61.30
34640;DHT22;22600;48.186;11.526;2022-08-14T12:08:11;23.30;61.40
34640;DHT22;22600;48.186;11.526;2022-08-14T12:10:41;23.40;61.50
34640;DHT22;22600;48.186;11.526;2022-08-14T12:13:14;23.30;61.40
34640;DHT22;22600;48.186;11.526;2022-08-14T12:15:41;23.30;61.40
34640;DHT22;22600;48.186;11.526;2022-08-14T12:18:07;23.30;61.40
34640;DHT22;22600;48.186;11.526;2022-08-14T12:20:34;23.20;61.30
34640;DHT22;22600;48.186;11.526;2022-08-14T12:23:18;23.30;61.50
34640;DHT22;22600;48.186;11.526;2022-08-14T12:25:44;23.30;61.70
34640;DHT22;22600;48.186;11.526;2022-08-14T12:28:11;23.30;61.60
34640;DHT22;22600;48.186;11.526;2022-08-14T12:30:42;23.30;61.60
34640;DHT22;22600;48.186;11.526;2022-08-14T12:33:23;23.20;61.50
34640;DHT22;22600;48.186;11.526;2022-08-14T12:35:55;24.00;62.10
34640;DHT22;22600;48.186;11.526;2022-08-14T12:38:51;23.20;61.50
34640;DHT22;22600;48.186;11.526;2022-08-14T12:41:19;23.30;61.60
34640;DHT22;22600;48.186;11.526;2022-08-14T12:43:51;23.20;61.50
34640;DHT22;22600;48.186;11.526;2022-08-14T12:46:22;23.30;61.60
34640;DHT22;22600;48.186;11.526;2022-08-14T12:48:49;23.20;61.60
34640;DHT22;22600;48.186;11.526;2022-08-14T12:51:20;23.20;61.50
34640;DHT22;22600;48.186;11.526;2022-08-14T12:53:46;23.20;61.60
34640;DHT22;22600;48.186;11.526;2022-08-14T12:56:16;23.20;61.60
34640;DHT22;22600;48.186;11.526;2022-08-14T12:58:49;23.20;62.30
34640;DHT22;22600;48.186;11.526;2022-08-14T13:01:21;23.30;61.60
34640;DHT22;22600;48.186;11.526;2022-08-14T13:03:47;23.20;61.60
34640;DHT22;22600;48.186;11.526;2022-08-14T13:06:13;23.20;61.60
34640;DHT22;22600;48.186;11.526;2022-08-14T13:08:39;23.20;61.50
34640;DHT22;22600;48.186;11.526;2022-08-14T13:11:16;23.20;61.60
34640;DHT22;22600;48.186;11.526;2022-08-14T13:13:43;23.30;61.60
34640;DHT22;22600;48.186;11.526;2022-08-14T13:16:11;23.30;61.60
34640;DHT22;22600;48.186;11.526;2022-08-14T13:18:41;23.30;61.60
34640;DHT22;22600;48.186;11.526;2022-08-14T13:21:10;23.30;61.60
34640;DHT22;22600;48.186;11.526;2022-08-14T13:23:40;23.20;61.60
34640;DHT22;22600;48.186;11.526;2022-08-14T13:26:07;23.30;61.60
34640;DHT22;22600;48.186;11.526;2022-08-14T13:28:37;23.30;61.60
34640;DHT22;22600;48.186;11.526;2022-08-14T13:31:06;23.30;61.60
34640;DHT22;22600;48.186;11.526;2022-08-14T13:33:35;23.30;61.60
34640;DHT22;22600;48.186;11.526;2022-08-14T13:36:01;23.20;61.60
34640;DHT22;22600;48.186;11.526;2022-08-14T13:38:27;23.20;61.60
34640;DHT22;22600;48.186;11.526;2022-08-14T13:40:56;23.30;61.60
34640;DHT22;22600;48.186;11.526;2022-08-14T13:43:22;23.30;61.70
34640;DHT22;22600;48.186;11.526;2022-08-14T13:45:51;23.20;61.60
34640;DHT22;22600;48.186;11.526;2022-08-14T13:48:21;23.10;61.60
34640;DHT22;22600;48.186;11.526;2022-08-14T13:50:47;23.20;61.60
34640;DHT22;22600;48.186;11.526;2022-08-14T13:53:15;23.20;61.70
34640;DHT22;22600;48.186;11.526;2022-08-14T13:55:43;23.20;61.60
34640;DHT22;22600;48.186;11.526;2022-08-14T13:58:13;23.30;61.70
34640;DHT22;22600;48.186;11.526;2022-08-14T14:00:40;23.20;61.70
34640;DHT22;22600;48.186;11.526;2022-08-14T14:03:05;23.20;61.70
34640;DHT22;22600;48.186;11.526;2022-08-14T14:05:34;23.20;61.70
34640;DHT22;22600;48.186;11.526;2022-08-14T14:08:05;23.20;61.70
34640;DHT22;22600;48.186;11.526;2022-08-14T14:10:34;23.30;61.80
34640;DHT22;22600;48.186;11.526;2022-08-14T14:13:01;23.20;61.70
34640;DHT22;22600;48.186;11.526;2022-08-14T14:15:27;23.20;61.70
34640;DHT22;22600;48.186;11.526;2022-08-14T14:17:52;23.20;61.70
34640;DHT22;22600;48.186;11.526;2022-08-14T14:20:20;23.20;61.70
34640;DHT22;22600;48.186;11.526;2022-08-14T14:22:48;23.20;61.70
34640;DHT22;22600;48.186;11.526;2022-08-14T14:25:15;23.30;61.90
34640;DHT22;22600;48.186;11.526;2022-08-14T14:27:43;23.20;61.80
34640;DHT22;22600;48.186;11.526;2022-08-14T14:30:14;23.20;61.80
34640;DHT22;22600;48.186;11.526;2022-08-14T14:32:43;23.30;61.90
34640;DHT22;22600;48.186;11.526;2022-08-14T14:35:16;23.20;61.90
34640;DHT22;22600;48.186;11.526;2022-08-14T14:37:45;23.30;61.90
34640;DHT22;22600;48.186;11.526;2022-08-14T14:40:13;23.20;61.80
34640;DHT22;22600;48.186;11.526;2022-08-14T14:42:47;23.20;61.80
34640;DHT22;22600;48.186;11.526;2022-08-14T14:45:16;23.20;61.90
34640;DHT22;22600;48.186;11.526;2022-08-14T14:47:49;23.20;61.90
34640;DHT22;22600;48.186;11.526;2022-08-14T14:50:20;23.20;61.90
34640;DHT22;22600;48.186;11.526;2022-08-14T14:52:47;23.30;62.00
34640;DHT22;22600;48.186;11.526;2022-08-14T14:55:14;23.20;62.00
34640;DHT22;22600;48.186;11.526;2022-08-14T14:57:40;23.20;61.90
34640;DHT22;22600;48.186;11.526;2022-08-14T15:00:15;23.20;61.90
34640;DHT22;22600;48.186;11.526;2022-08-14T15:02:44;23.20;62.00
34640;DHT22;22600;48.186;11.526;2022-08-14T15:05:12;23.30;62.00
34640;DHT22;22600;48.186;11.526;2022-08-14T15:07:39;23.20;62.00
34640;DHT22;22600;48.186;11.526;2022-08-14T15:10:07;23.20;62.00
34640;DHT22;22600;48.186;11.526;2022-08-14T15:12:33;23.20;62.70
34640;DHT22;22600;48.186;11.526;2022-08-14T15:14:59;23.30;62.10
34640;DHT22;22600;48.186;11.526;2022-08-14T15:17:25;23.20;62.10
34640;DHT22;22600;48.186;11.526;2022-08-14T15:19:51;23.20;62.00
34640;DHT22;22600;48.186;11.526;2022-08-14T15:22:18;23.20;61.40
34640;DHT22;22600;48.186;11.526;2022-08-14T15:24:45;23.30;62.10
34640;DHT22;22600;48.186;11.526;2022-08-14T15:27:10;23.20;62.00
34640;DHT22;22600;48.186;11.526;2022-08-14T15:29:36;23.20;62.10
34640;DHT22;22600;48.186;11.526;2022-08-14T15:32:06;23.10;62.10